sensor_id;sensor_type;location;lat;lon;timestamp;P1;durP1;ratioP1;P2;durP2;ratioP2
249;SDS011;109;19.806;-70.704;2022-11-20T00:00:14;15.90;;;4.67;;
249;SDS011;109;19.806;-70.704;2022-11-20T00:02:41;12.30;;;4.43;;
249;SDS011;109;19.806;-70.704;2022-11-20T00:05:08;18.00;;;5.13;;
249;SDS011;109;19.806;-70.704;2022-11-20T00:07:34;18.30;;;4.60;;
249;SDS011;109;19.806;-70.704;2022-11-20T00:10:01;25.50;;;4.83;;
249;SDS011;109;19.806;-70.704;2022-11-20T00:12:27;18.77;;;5.50;;
249;SDS011;109;19.806;-70.704;2022-11-20T00:14:54;9.97;;;4.20;;
249;SDS011;109;19.806;-70.704;2022-11-20T00:17:20;22.27;;;4.20;;
249;SDS011;109;19.806;-70.704;2022-11-20T00:19:47;17.13;;;3.93;;
249;SDS011;109;19.806;-70.704;2022-11-20T00:22:13;15.43;;;4.37;;
249;SDS011;109;19.806;-70.704;2022-11-20T00:24:40;22.93;;;5.20;;
249;SDS011;109;19.806;-70.704;2022-11-20T00:27:06;17.10;;;3.60;;
249;SDS011;109;19.806;-70.704;2022-11-20T00:29:33;19.03;;;4.73;;
249;SDS011;109;19.806;-70.704;2022-11-20T00:31:59;11.10;;;4.07;;
249;SDS011;109;19.806;-70.704;2022-11-20T00:34:25;12.63;;;3.90;;
249;SDS011;109;19.806;-70.704;2022-11-20T00:36:53;13.70;;;4.37;;
249;SDS011;109;19.806;-70.704;2022-11-20T00:39:19;15.33;;;4.20;;
249;SDS011;109;19.806;-70.704;2022-11-20T00:41:46;15.87;;;3.83;;
249;SDS011;109;19.806;-70.704;2022-11-20T00:44:12;14.17;;;4.20;;
249;SDS011;109;19.806;-70.704;2022-11-20T00:46:39;20.00;;;3.87;;
249;SDS011;109;19.806;-70.704;2022-11-20T00:49:05;21.97;;;4.10;;
249;SDS011;109;19.806;-70.704;2022-11-20T00:51:31;16.63;;;4.23;;
249;SDS011;109;19.806;-70.704;2022-11-20T00:53:58;13.03;;;4.50;;
249;SDS011;109;19.806;-70.704;2022-11-20T00:56:31;17.20;;;4.17;;
249;SDS011;109;19.806;-70.704;2022-11-20T00:58:59;23.30;;;5.30;;
249;SDS011;109;19.806;-70.704;2022-11-20T01:01:33;15.53;;;4.40;;
249;SDS011;109;19.806;-70.704;2022-11-20T01:04:00;20.57;;;4.20;;
249;SDS011;109;19.806;-70.704;2022-11-20T01:06:34;25.20;;;4.03;;
249;SDS011;109;19.806;-70.704;2022-11-20T01:09:04;17.83;;;3.87;;
249;SDS011;109;19.806;-70.704;2022-11-20T01:11:43;17.63;;;3.80;;
249;SDS011;109;19.806;-70.704;2022-11-20T01:14:15;16.10;;;3.93;;
249;SDS011;109;19.806;-70.704;2022-11-20T01:16:50;17.33;;;4.63;;
249;SDS011;109;19.806;-70.704;2022-11-20T01:19:19;17.73;;;3.97;;
249;SDS011;109;19.806;-70.704;2022-11-20T01:21:54;18.13;;;4.03;;
249;SDS011;109;19.806;-70.704;2022-11-20T01:24:21;15.63;;;3.90;;
249;SDS011;109;19.806;-70.704;2022-11-20T01:26:54;14.73;;;3.70;;
249;SDS011;109;19.806;-70.704;2022-11-20T01:29:22;23.90;;;4.53;;
249;SDS011;109;19.806;-70.704;2022-11-20T01:31:55;14.57;;;3.93;;
249;SDS011;109;19.806;-70.704;2022-11-20T01:34:22;11.17;;;3.03;;
249;SDS011;109;19.806;-70.704;2022-11-20T01:36:55;13.93;;;4.10;;
249;SDS011;109;19.806;-70.704;2022-11-20T01:39:23;11.07;;;3.80;;
249;SDS011;109;19.806;-70.704;2022-11-20T01:42:05;15.97;;;3.60;;
249;SDS011;109;19.806;-70.704;2022-11-20T01:48:25;23.70;;;4.30;;
249;SDS011;109;19.806;-70.704;2022-11-20T01:51:02;14.97;;;3.50;;
249;SDS011;109;19.806;-70.704;2022-11-20T01:53:45;20.53;;;4.10;;
249;SDS011;109;19.806;-70.704;2022-11-20T01:56:12;18.30;;;4.47;;
249;SDS011;109;19.806;-70.704;2022-11-20T01:58:55;13.10;;;3.50;;
249;SDS011;109;19.806;-70.704;2022-11-20T02:01:30;14.37;;;4.10;;
249;SDS011;109;19.806;-70.704;2022-11-20T02:04:11;20.47;;;4.07;;
249;SDS011;109;19.806;-70.704;2022-11-20T02:06:42;19.27;;;3.40;;
249;SDS011;109;19.806;-70.704;2022-11-20T02:09:23;12.20;;;2.93;;
249;SDS011;109;19.806;-70.704;2022-11-20T02:11:50;11.20;;;3.83;;
249;SDS011;109;19.806;-70.704;2022-11-20T02:14:30;14.10;;;3.60;;
249;SDS011;109;19.806;-70.704;2022-11-20T02:16:57;9.53;;;3.13;;
249;SDS011;109;19.806;-70.704;2022-11-20T02:19:39;21.03;;;4.30;;
249;SDS011;109;19.806;-70.704;2022-11-20T02:22:18;12.73;;;3.90;;
249;SDS011;109;19.806;-70.704;2022-11-20T02:25:03;17.57;;;3.70;;
249;SDS011;109;19.806;-70.704;2022-11-20T02:27:46;19.43;;;5.20;;
249;SDS011;109;19.806;-70.704;2022-11-20T02:30:13;17.40;;;4.10;;
249;SDS011;109;19.806;-70.704;2022-11-20T02:32:52;15.97;;;4.17;;
249;SDS011;109;19.806;-70.704;2022-11-20T02:38:00;19.07;;;4.33;;
249;SDS011;109;19.806;-70.704;2022-11-20T02:40:42;11.17;;;3.70;;
249;SDS011;109;19.806;-70.704;2022-11-20T02:43:29;14.20;;;3.63;;
249;SDS011;109;19.806;-70.704;2022-11-20T02:46:02;17.43;;;4.30;;
249;SDS011;109;19.806;-70.704;2022-11-20T02:48:42;14.90;;;4.30;;
249;SDS011;109;19.806;-70.704;2022-11-20T02:51:08;18.43;;;3.60;;
249;SDS011;109;19.806;-70.704;2022-11-20T02:53:49;18.57;;;3.73;;
249;SDS011;109;19.806;-70.704;2022-11-20T02:56:16;18.83;;;4.33;;
249;SDS011;109;19.806;-70.704;2022-11-20T02:58:56;15.00;;;4.17;;
249;SDS011;109;19.806;-70.704;2022-11-20T03:01:23;20.27;;;4.07;;
249;SDS011;109;19.806;-70.704;2022-11-20T03:04:02;14.43;;;3.70;;
249;SDS011;109;19.806;-70.704;2022-11-20T03:06:29;15.13;;;3.50;;
249;SDS011;109;19.806;-70.704;2022-11-20T03:09:09;14.03;;;3.80;;
249;SDS011;109;19.806;-70.704;2022-11-20T03:11:36;14.90;;;4.00;;
249;SDS011;109;19.806;-70.704;2022-11-20T03:14:15;17.93;;;3.60;;
249;SDS011;109;19.806;-70.704;2022-11-20T03:16:42;15.27;;;3.20;;
249;SDS011;109;19.806;-70.704;2022-11-20T03:19:29;9.83;;;3.20;;
249;SDS011;109;19.806;-70.704;2022-11-20T03:22:02;18.67;;;3.90;;
249;SDS011;109;19.806;-70.704;2022-11-20T03:24:43;19.27;;;3.60;;
249;SDS011;109;19.806;-70.704;2022-11-20T03:27:10;18.83;;;3.40;;
249;SDS011;109;19.806;-70.704;2022-11-20T03:29:49;21.80;;;3.57;;
249;SDS011;109;19.806;-70.704;2022-11-20T03:32:16;19.40;;;3.47;;
249;SDS011;109;19.806;-70.704;2022-11-20T03:34:55;12.00;;;3.00;;
249;SDS011;109;19.806;-70.704;2022-11-20T03:37:35;13.60;;;3.37;;
249;SDS011;109;19.806;-70.704;2022-11-20T03:40:02;17.50;;;3.73;;
249;SDS011;109;19.806;-70.704;2022-11-20T03:42:50;11.60;;;3.00;;
249;SDS011;109;19.806;-70.704;2022-11-20T03:45:23;17.60;;;3.50;;
249;SDS011;109;19.806;-70.704;2022-11-20T03:48:03;12.27;;;3.30;;
249;SDS011;109;19.806;-70.704;2022-11-20T03:50:30;13.23;;;2.90;;
249;SDS011;109;19.806;-70.704;2022-11-20T03:53:09;16.60;;;3.63;;
249;SDS011;109;19.806;-70.704;2022-11-20T03:55:36;16.40;;;3.30;;
249;SDS011;109;19.806;-70.704;2022-11-20T03:58:24;12.17;;;3.50;;
249;SDS011;109;19.806;-70.704;2022-11-20T04:00:57;13.50;;;3.77;;
249;SDS011;109;19.806;-70.704;2022-11-20T04:03:39;13.80;;;3.67;;
249;SDS011;109;19.806;-70.704;2022-11-20T04:06:09;15.03;;;3.77;;
249;SDS011;109;19.806;-70.704;2022-11-20T04:09:08;18.77;;;3.30;;
249;SDS011;109;19.806;-70.704;2022-11-20T04:11:36;20.30;;;4.13;;
249;SDS011;109;19.806;-70.704;2022-11-20T04:14:17;12.47;;;2.97;;
249;SDS011;109;19.806;-70.704;2022-11-20T04:16:44;15.70;;;3.57;;
249;SDS011;109;19.806;-70.704;2022-11-20T04:19:23;13.00;;;3.47;;
249;SDS011;109;19.806;-70.704;2022-11-20T04:21:50;17.13;;;3.70;;
249;SDS011;109;19.806;-70.704;2022-11-20T04:24:29;18.80;;;4.57;;
249;SDS011;109;19.806;-70.704;2022-11-20T04:26:56;17.47;;;3.97;;
249;SDS011;109;19.806;-70.704;2022-11-20T04:29:36;16.87;;;3.43;;
249;SDS011;109;19.806;-70.704;2022-11-20T04:32:03;12.00;;;3.33;;
249;SDS011;109;19.806;-70.704;2022-11-20T04:34:42;20.33;;;3.93;;
249;SDS011;109;19.806;-70.704;2022-11-20T04:37:16;11.73;;;3.60;;
249;SDS011;109;19.806;-70.704;2022-11-20T04:40:02;13.53;;;3.10;;
249;SDS011;109;19.806;-70.704;2022-11-20T04:42:41;17.50;;;3.20;;
249;SDS011;109;19.806;-70.704;2022-11-20T04:45:08;12.43;;;3.50;;
249;SDS011;109;19.806;-70.704;2022-11-20T04:47:48;7.20;;;2.70;;
249;SDS011;109;19.806;-70.704;2022-11-20T04:50:15;12.27;;;3.33;;
249;SDS011;109;19.806;-70.704;2022-11-20T04:52:54;10.43;;;3.00;;
249;SDS011;109;19.806;-70.704;2022-11-20T04:55:21;8.67;;;3.17;;
249;SDS011;109;19.806;-70.704;2022-11-20T04:58:00;8.30;;;2.70;;
249;SDS011;109;19.806;-70.704;2022-11-20T05:00:34;12.63;;;3.20;;
249;SDS011;109;19.806;-70.704;2022-11-20T05:03:16;14.90;;;3.20;;
249;SDS011;109;19.806;-70.704;2022-11-20T05:05:42;13.70;;;3.07;;
249;SDS011;109;19.806;-70.704;2022-11-20T05:08:21;12.53;;;3.40;;
249;SDS011;109;19.806;-70.704;2022-11-20T05:10:48;14.07;;;3.67;;
249;SDS011;109;19.806;-70.704;2022-11-20T05:13:27;14.53;;;3.03;;
249;SDS011;109;19.806;-70.704;2022-11-20T05:15:54;11.70;;;3.23;;
249;SDS011;109;19.806;-70.704;2022-11-20T05:18:34;15.50;;;3.83;;
249;SDS011;109;19.806;-70.704;2022-11-20T05:21:01;10.30;;;3.03;;
249;SDS011;109;19.806;-70.704;2022-11-20T05:23:42;12.30;;;2.90;;
249;SDS011;109;19.806;-70.704;2022-11-20T05:26:12;11.67;;;3.60;;
249;SDS011;109;19.806;-70.704;2022-11-20T05:28:53;14.73;;;4.10;;
249;SDS011;109;19.806;-70.704;2022-11-20T05:31:21;13.50;;;3.40;;
249;SDS011;109;19.806;-70.704;2022-11-20T05:34:02;11.00;;;3.27;;
249;SDS011;109;19.806;-70.704;2022-11-20T05:36:29;14.53;;;3.17;;
249;SDS011;109;19.806;-70.704;2022-11-20T05:39:17;19.57;;;4.20;;
249;SDS011;109;19.806;-70.704;2022-11-20T05:41:49;14.17;;;3.57;;
249;SDS011;109;19.806;-70.704;2022-11-20T05:44:54;11.13;;;3.10;;
249;SDS011;109;19.806;-70.704;2022-11-20T05:47:33;15.27;;;3.63;;
249;SDS011;109;19.806;-70.704;2022-11-20T05:50:00;12.87;;;3.30;;
249;SDS011;109;19.806;-70.704;2022-11-20T05:52:41;20.03;;;3.73;;
249;SDS011;109;19.806;-70.704;2022-11-20T05:55:08;13.30;;;3.40;;
249;SDS011;109;19.806;-70.704;2022-11-20T05:57:47;15.87;;;3.37;;
249;SDS011;109;19.806;-70.704;2022-11-20T06:00:14;14.43;;;3.40;;
249;SDS011;109;19.806;-70.704;2022-11-20T06:03:01;12.00;;;3.00;;
249;SDS011;109;19.806;-70.704;2022-11-20T06:05:34;14.87;;;3.73;;
249;SDS011;109;19.806;-70.704;2022-11-20T06:08:15;16.00;;;3.10;;
249;SDS011;109;19.806;-70.704;2022-11-20T06:10:42;42.57;;;5.20;;
249;SDS011;109;19.806;-70.704;2022-11-20T06:13:22;11.77;;;3.20;;
249;SDS011;109;19.806;-70.704;2022-11-20T06:15:49;15.47;;;3.90;;
249;SDS011;109;19.806;-70.704;2022-11-20T06:18:30;12.20;;;4.30;;
249;SDS011;109;19.806;-70.704;2022-11-20T06:21:05;15.00;;;3.20;;
249;SDS011;109;19.806;-70.704;2022-11-20T06:23:51;23.20;;;3.50;;
249;SDS011;109;19.806;-70.704;2022-11-20T06:26:20;15.13;;;3.80;;
249;SDS011;109;19.806;-70.704;2022-11-20T06:29:01;15.93;;;3.60;;
249;SDS011;109;19.806;-70.704;2022-11-20T06:31:28;9.30;;;3.20;;
249;SDS011;109;19.806;-70.704;2022-11-20T06:34:10;13.03;;;3.23;;
249;SDS011;109;19.806;-70.704;2022-11-20T06:36:36;9.27;;;2.93;;
249;SDS011;109;19.806;-70.704;2022-11-20T06:39:16;19.53;;;3.73;;
249;SDS011;109;19.806;-70.704;2022-11-20T06:41:50;19.80;;;3.33;;
249;SDS011;109;19.806;-70.704;2022-11-20T06:44:30;13.07;;;2.97;;
249;SDS011;109;19.806;-70.704;2022-11-20T06:46:56;19.00;;;3.33;;
249;SDS011;109;19.806;-70.704;2022-11-20T06:49:35;8.53;;;2.90;;
249;SDS011;109;19.806;-70.704;2022-11-20T06:52:04;10.50;;;2.77;;
249;SDS011;109;19.806;-70.704;2022-11-20T06:54:44;12.30;;;3.37;;
249;SDS011;109;19.806;-70.704;2022-11-20T06:57:11;20.50;;;3.40;;
249;SDS011;109;19.806;-70.704;2022-11-20T06:59:50;15.73;;;3.50;;
249;SDS011;109;19.806;-70.704;2022-11-20T07:02:30;13.00;;;3.43;;
249;SDS011;109;19.806;-70.704;2022-11-20T07:05:04;21.70;;;5.03;;
249;SDS011;109;19.806;-70.704;2022-11-20T07:07:43;18.63;;;3.60;;
249;SDS011;109;19.806;-70.704;2022-11-20T07:10:10;13.57;;;3.53;;
249;SDS011;109;19.806;-70.704;2022-11-20T07:12:51;12.97;;;3.07;;
249;SDS011;109;19.806;-70.704;2022-11-20T07:15:19;16.77;;;3.60;;
249;SDS011;109;19.806;-70.704;2022-11-20T07:18:00;15.40;;;3.30;;
249;SDS011;109;19.806;-70.704;2022-11-20T07:20:27;15.03;;;3.03;;
249;SDS011;109;19.806;-70.704;2022-11-20T07:23:08;13.33;;;3.20;;
249;SDS011;109;19.806;-70.704;2022-11-20T07:25:34;12.97;;;3.17;;
249;SDS011;109;19.806;-70.704;2022-11-20T07:28:14;24.13;;;4.57;;
249;SDS011;109;19.806;-70.704;2022-11-20T07:30:41;14.30;;;3.03;;
249;SDS011;109;19.806;-70.704;2022-11-20T07:33:21;15.37;;;3.43;;
249;SDS011;109;19.806;-70.704;2022-11-20T07:35:48;15.70;;;3.30;;
249;SDS011;109;19.806;-70.704;2022-11-20T07:38:28;12.33;;;3.03;;
249;SDS011;109;19.806;-70.704;2022-11-20T07:40:55;17.53;;;3.40;;
249;SDS011;109;19.806;-70.704;2022-11-20T07:43:46;10.60;;;3.47;;
249;SDS011;109;19.806;-70.704;2022-11-20T07:46:18;10.57;;;2.93;;
249;SDS011;109;19.806;-70.704;2022-11-20T07:48:58;17.70;;;4.00;;
249;SDS011;109;19.806;-70.704;2022-11-20T07:51:25;16.43;;;3.60;;
249;SDS011;109;19.806;-70.704;2022-11-20T07:54:04;11.30;;;3.10;;
249;SDS011;109;19.806;-70.704;2022-11-20T07:56:31;15.67;;;3.10;;
249;SDS011;109;19.806;-70.704;2022-11-20T07:59:11;13.57;;;3.40;;
249;SDS011;109;19.806;-70.704;2022-11-20T08:01:38;14.30;;;3.50;;
249;SDS011;109;19.806;-70.704;2022-11-20T08:04:18;16.77;;;4.57;;
249;SDS011;109;19.806;-70.704;2022-11-20T08:06:45;23.13;;;4.20;;
249;SDS011;109;19.806;-70.704;2022-11-20T08:09:26;19.73;;;4.50;;
249;SDS011;109;19.806;-70.704;2022-11-20T08:11:52;9.10;;;3.17;;
249;SDS011;109;19.806;-70.704;2022-11-20T08:14:50;17.57;;;3.77;;
249;SDS011;109;19.806;-70.704;2022-11-20T08:17:30;19.87;;;3.73;;
249;SDS011;109;19.806;-70.704;2022-11-20T08:19:57;15.70;;;3.13;;
249;SDS011;109;19.806;-70.704;2022-11-20T08:22:36;15.03;;;3.60;;
249;SDS011;109;19.806;-70.704;2022-11-20T08:25:03;22.87;;;3.77;;
249;SDS011;109;19.806;-70.704;2022-11-20T08:27:44;16.63;;;3.30;;
249;SDS011;109;19.806;-70.704;2022-11-20T08:30:10;17.10;;;3.60;;
249;SDS011;109;19.806;-70.704;2022-11-20T08:32:52;17.43;;;3.63;;
249;SDS011;109;19.806;-70.704;2022-11-20T08:35:19;20.77;;;3.50;;
249;SDS011;109;19.806;-70.704;2022-11-20T08:38:03;11.33;;;3.77;;
249;SDS011;109;19.806;-70.704;2022-11-20T08:40:31;24.47;;;4.07;;
249;SDS011;109;19.806;-70.704;2022-11-20T08:43:18;19.60;;;4.07;;
249;SDS011;109;19.806;-70.704;2022-11-20T08:45:59;15.73;;;3.10;;
249;SDS011;109;19.806;-70.704;2022-11-20T08:48:39;15.80;;;3.30;;
249;SDS011;109;19.806;-70.704;2022-11-20T08:51:06;26.43;;;3.60;;
249;SDS011;109;19.806;-70.704;2022-11-20T08:53:46;15.73;;;3.60;;
249;SDS011;109;19.806;-70.704;2022-11-20T08:56:14;14.87;;;3.53;;
249;SDS011;109;19.806;-70.704;2022-11-20T08:58:53;24.70;;;3.50;;
249;SDS011;109;19.806;-70.704;2022-11-20T09:01:20;27.37;;;4.40;;
249;SDS011;109;19.806;-70.704;2022-11-20T09:04:02;22.17;;;4.00;;
249;SDS011;109;19.806;-70.704;2022-11-20T09:06:30;11.53;;;3.00;;
249;SDS011;109;19.806;-70.704;2022-11-20T09:09:10;18.70;;;4.37;;
249;SDS011;109;19.806;-70.704;2022-11-20T09:11:37;19.50;;;4.00;;
249;SDS011;109;19.806;-70.704;2022-11-20T09:14:17;16.97;;;3.60;;
249;SDS011;109;19.806;-70.704;2022-11-20T09:16:44;20.30;;;3.97;;
249;SDS011;109;19.806;-70.704;2022-11-20T09:19:26;20.73;;;4.90;;
249;SDS011;109;19.806;-70.704;2022-11-20T09:21:52;22.63;;;4.10;;
249;SDS011;109;19.806;-70.704;2022-11-20T09:24:33;34.83;;;4.93;;
249;SDS011;109;19.806;-70.704;2022-11-20T09:27:01;23.43;;;4.80;;
249;SDS011;109;19.806;-70.704;2022-11-20T09:29:43;31.33;;;5.00;;
249;SDS011;109;19.806;-70.704;2022-11-20T09:32:22;24.70;;;4.17;;
249;SDS011;109;19.806;-70.704;2022-11-20T09:34:56;17.43;;;4.00;;
249;SDS011;109;19.806;-70.704;2022-11-20T09:37:35;15.57;;;3.93;;
249;SDS011;109;19.806;-70.704;2022-11-20T09:40:02;14.30;;;3.57;;
249;SDS011;109;19.806;-70.704;2022-11-20T09:42:59;11.13;;;3.20;;
249;SDS011;109;19.806;-70.704;2022-11-20T09:56:59;13.60;;;3.17;;
249;SDS011;109;19.806;-70.704;2022-11-20T09:59:51;13.93;;;2.90;;
249;SDS011;109;19.806;-70.704;2022-11-20T10:05:30;13.60;;;3.17;;
249;SDS011;109;19.806;-70.704;2022-11-20T10:14:26;13.87;;;3.70;;
249;SDS011;109;19.806;-70.704;2022-11-20T10:17:49;13.30;;;3.17;;
249;SDS011;109;19.806;-70.704;2022-11-20T10:46:57;12.50;;;4.13;;
249;SDS011;109;19.806;-70.704;2022-11-20T10:49:38;12.07;;;3.20;;
249;SDS011;109;19.806;-70.704;2022-11-20T11:00:32;12.20;;;4.07;;
249;SDS011;109;19.806;-70.704;2022-11-20T11:02:59;17.73;;;4.10;;
249;SDS011;109;19.806;-70.704;2022-11-20T11:05:39;12.63;;;4.60;;
249;SDS011;109;19.806;-70.704;2022-11-20T11:08:16;16.57;;;3.90;;
249;SDS011;109;19.806;-70.704;2022-11-20T11:11:00;16.40;;;4.30;;
249;SDS011;109;19.806;-70.704;2022-11-20T11:13:47;16.27;;;4.03;;
249;SDS011;109;19.806;-70.704;2022-11-20T11:16:26;16.83;;;4.40;;
249;SDS011;109;19.806;-70.704;2022-11-20T11:19:03;12.03;;;4.10;;
249;SDS011;109;19.806;-70.704;2022-11-20T11:21:37;10.27;;;4.23;;
249;SDS011;109;19.806;-70.704;2022-11-20T11:24:15;11.10;;;4.73;;
249;SDS011;109;19.806;-70.704;2022-11-20T11:26:58;10.13;;;3.20;;
249;SDS011;109;19.806;-70.704;2022-11-20T11:29:30;14.93;;;5.30;;
249;SDS011;109;19.806;-70.704;2022-11-20T11:32:19;19.70;;;3.70;;
249;SDS011;109;19.806;-70.704;2022-11-20T11:34:58;26.90;;;12.90;;
249;SDS011;109;19.806;-70.704;2022-11-20T11:37:38;27.77;;;16.90;;
249;SDS011;109;19.806;-70.704;2022-11-20T11:40:05;22.80;;;14.37;;
249;SDS011;109;19.806;-70.704;2022-11-20T11:42:41;27.70;;;16.13;;
249;SDS011;109;19.806;-70.704;2022-11-20T11:45:16;16.60;;;12.97;;
249;SDS011;109;19.806;-70.704;2022-11-20T11:47:46;30.97;;;16.30;;
249;SDS011;109;19.806;-70.704;2022-11-20T11:50:18;25.87;;;13.43;;
249;SDS011;109;19.806;-70.704;2022-11-20T11:55:32;24.77;;;10.70;;
249;SDS011;109;19.806;-70.704;2022-11-20T11:58:33;18.63;;;8.60;;
249;SDS011;109;19.806;-70.704;2022-11-20T12:04:37;18.53;;;5.27;;
249;SDS011;109;19.806;-70.704;2022-11-20T12:06:44;12.90;;;4.20;;
249;SDS011;109;19.806;-70.704;2022-11-20T12:09:15;18.50;;;4.80;;
249;SDS011;109;19.806;-70.704;2022-11-20T12:12:47;19.00;;;5.00;;
249;SDS011;109;19.806;-70.704;2022-11-20T12:14:48;14.93;;;4.17;;
249;SDS011;109;19.806;-70.704;2022-11-20T12:17:18;12.90;;;4.27;;
249;SDS011;109;19.806;-70.704;2022-11-20T12:19:44;12.30;;;4.00;;
249;SDS011;109;19.806;-70.704;2022-11-20T12:24:50;12.70;;;3.90;;
249;SDS011;109;19.806;-70.704;2022-11-20T12:55:25;12.90;;;3.57;;
249;SDS011;109;19.806;-70.704;2022-11-20T12:58:23;17.93;;;3.90;;
249;SDS011;109;19.806;-70.704;2022-11-20T13:01:05;18.27;;;3.57;;
249;SDS011;109;19.806;-70.704;2022-11-20T13:07:03;20.80;;;4.50;;
249;SDS011;109;19.806;-70.704;2022-11-20T13:09:33;15.93;;;3.20;;
249;SDS011;109;19.806;-70.704;2022-11-20T13:12:11;12.00;;;3.00;;
249;SDS011;109;19.806;-70.704;2022-11-20T13:17:54;13.97;;;3.70;;
249;SDS011;109;19.806;-70.704;2022-11-20T13:20:26;11.27;;;3.47;;
249;SDS011;109;19.806;-70.704;2022-11-20T13:22:55;10.43;;;4.30;;
249;SDS011;109;19.806;-70.704;2022-11-20T13:25:33;14.30;;;3.50;;
249;SDS011;109;19.806;-70.704;2022-11-20T13:30:48;14.23;;;3.50;;
249;SDS011;109;19.806;-70.704;2022-11-20T13:33:23;11.70;;;3.03;;
249;SDS011;109;19.806;-70.704;2022-11-20T13:38:28;16.97;;;3.33;;
249;SDS011;109;19.806;-70.704;2022-11-20T13:41:22;11.40;;;3.83;;
249;SDS011;109;19.806;-70.704;2022-11-20T13:44:10;13.10;;;3.90;;
249;SDS011;109;19.806;-70.704;2022-11-20T13:47:02;12.20;;;3.20;;
249;SDS011;109;19.806;-70.704;2022-11-20T13:49:31;15.33;;;3.13;;
249;SDS011;109;19.806;-70.704;2022-11-20T13:54:44;13.03;;;3.27;;
249;SDS011;109;19.806;-70.704;2022-11-20T13:57:42;11.27;;;2.90;;
249;SDS011;109;19.806;-70.704;2022-11-20T14:00:21;19.30;;;2.90;;
249;SDS011;109;19.806;-70.704;2022-11-20T14:03:07;10.83;;;3.20;;
249;SDS011;109;19.806;-70.704;2022-11-20T14:05:40;16.00;;;3.00;;
249;SDS011;109;19.806;-70.704;2022-11-20T14:08:24;12.80;;;2.70;;
249;SDS011;109;19.806;-70.704;2022-11-20T14:11:12;14.07;;;3.27;;
249;SDS011;109;19.806;-70.704;2022-11-20T14:13:49;16.83;;;3.10;;
249;SDS011;109;19.806;-70.704;2022-11-20T14:16:35;10.10;;;2.60;;
249;SDS011;109;19.806;-70.704;2022-11-20T14:21:48;15.03;;;3.00;;
249;SDS011;109;19.806;-70.704;2022-11-20T14:24:22;16.03;;;3.47;;
249;SDS011;109;19.806;-70.704;2022-11-20T14:26:50;20.10;;;3.57;;
249;SDS011;109;19.806;-70.704;2022-11-20T14:29:18;21.73;;;4.40;;
249;SDS011;109;19.806;-70.704;2022-11-20T14:31:48;23.33;;;3.77;;
249;SDS011;109;19.806;-70.704;2022-11-20T14:34:20;14.43;;;2.90;;
249;SDS011;109;19.806;-70.704;2022-11-20T14:36:50;20.37;;;3.40;;
249;SDS011;109;19.806;-70.704;2022-11-20T14:39:22;18.67;;;3.57;;
249;SDS011;109;19.806;-70.704;2022-11-20T14:42:00;25.93;;;3.70;;
249;SDS011;109;19.806;-70.704;2022-11-20T14:44:29;19.10;;;5.33;;
249;SDS011;109;19.806;-70.704;2022-11-20T14:46:58;16.73;;;3.53;;
249;SDS011;109;19.806;-70.704;2022-11-20T14:49:28;21.00;;;3.50;;
249;SDS011;109;19.806;-70.704;2022-11-20T14:51:58;19.73;;;4.13;;
249;SDS011;109;19.806;-70.704;2022-11-20T14:54:27;20.13;;;3.80;;
249;SDS011;109;19.806;-70.704;2022-11-20T14:56:55;18.03;;;3.93;;
249;SDS011;109;19.806;-70.704;2022-11-20T14:59:22;15.20;;;3.10;;
249;SDS011;109;19.806;-70.704;2022-11-20T15:01:54;19.03;;;3.30;;
249;SDS011;109;19.806;-70.704;2022-11-20T15:04:23;17.47;;;3.30;;
249;SDS011;109;19.806;-70.704;2022-11-20T15:06:50;36.93;;;4.17;;
249;SDS011;109;19.806;-70.704;2022-11-20T15:09:19;22.00;;;3.50;;
249;SDS011;109;19.806;-70.704;2022-11-20T15:11:53;16.70;;;4.67;;
249;SDS011;109;19.806;-70.704;2022-11-20T15:14:25;17.70;;;3.70;;
249;SDS011;109;19.806;-70.704;2022-11-20T15:16:53;16.17;;;3.90;;
249;SDS011;109;19.806;-70.704;2022-11-20T15:19:23;22.43;;;3.70;;
249;SDS011;109;19.806;-70.704;2022-11-20T15:21:52;29.87;;;5.20;;
249;SDS011;109;19.806;-70.704;2022-11-20T15:24:19;24.53;;;4.63;;
249;SDS011;109;19.806;-70.704;2022-11-20T15:26:45;23.93;;;4.20;;
249;SDS011;109;19.806;-70.704;2022-11-20T15:29:14;24.97;;;3.87;;
249;SDS011;109;19.806;-70.704;2022-11-20T15:31:44;19.60;;;3.63;;
249;SDS011;109;19.806;-70.704;2022-11-20T15:34:11;14.03;;;3.17;;
249;SDS011;109;19.806;-70.704;2022-11-20T15:36:39;20.30;;;3.70;;
249;SDS011;109;19.806;-70.704;2022-11-20T15:39:06;20.07;;;3.67;;
249;SDS011;109;19.806;-70.704;2022-11-20T15:41:36;22.40;;;4.43;;
249;SDS011;109;19.806;-70.704;2022-11-20T15:44:03;27.53;;;3.70;;
249;SDS011;109;19.806;-70.704;2022-11-20T15:46:31;31.17;;;5.07;;
249;SDS011;109;19.806;-70.704;2022-11-20T15:49:02;30.27;;;4.43;;
249;SDS011;109;19.806;-70.704;2022-11-20T15:51:30;20.43;;;3.40;;
249;SDS011;109;19.806;-70.704;2022-11-20T15:53:57;23.87;;;4.67;;
249;SDS011;109;19.806;-70.704;2022-11-20T15:56:24;21.50;;;4.40;;
249;SDS011;109;19.806;-70.704;2022-11-20T15:58:52;25.83;;;4.47;;
249;SDS011;109;19.806;-70.704;2022-11-20T16:01:19;18.30;;;4.30;;
249;SDS011;109;19.806;-70.704;2022-11-20T16:03:47;47.63;;;6.10;;
249;SDS011;109;19.806;-70.704;2022-11-20T16:06:13;13.60;;;3.23;;
249;SDS011;109;19.806;-70.704;2022-11-20T16:08:41;13.90;;;3.07;;
249;SDS011;109;19.806;-70.704;2022-11-20T16:11:10;18.30;;;4.00;;
249;SDS011;109;19.806;-70.704;2022-11-20T16:13:40;19.53;;;3.23;;
249;SDS011;109;19.806;-70.704;2022-11-20T16:16:27;11.93;;;3.73;;
249;SDS011;109;19.806;-70.704;2022-11-20T16:18:56;19.13;;;3.10;;
249;SDS011;109;19.806;-70.704;2022-11-20T16:21:23;18.87;;;3.27;;
249;SDS011;109;19.806;-70.704;2022-11-20T16:24:00;17.27;;;3.50;;
249;SDS011;109;19.806;-70.704;2022-11-20T16:26:31;20.33;;;4.40;;
249;SDS011;109;19.806;-70.704;2022-11-20T16:28:58;30.83;;;4.43;;
249;SDS011;109;19.806;-70.704;2022-11-20T16:31:26;20.60;;;3.67;;
249;SDS011;109;19.806;-70.704;2022-11-20T16:33:54;16.03;;;3.47;;
249;SDS011;109;19.806;-70.704;2022-11-20T16:36:22;21.93;;;4.27;;
249;SDS011;109;19.806;-70.704;2022-11-20T16:39:08;25.80;;;4.23;;
249;SDS011;109;19.806;-70.704;2022-11-20T16:41:35;15.30;;;3.50;;
249;SDS011;109;19.806;-70.704;2022-11-20T16:44:02;20.97;;;4.17;;
249;SDS011;109;19.806;-70.704;2022-11-20T16:46:33;24.27;;;3.93;;
249;SDS011;109;19.806;-70.704;2022-11-20T16:49:00;25.00;;;4.50;;
249;SDS011;109;19.806;-70.704;2022-11-20T16:51:29;16.60;;;3.50;;
249;SDS011;109;19.806;-70.704;2022-11-20T16:53:57;27.07;;;3.90;;
249;SDS011;109;19.806;-70.704;2022-11-20T16:56:27;29.57;;;4.60;;
249;SDS011;109;19.806;-70.704;2022-11-20T16:58:55;22.73;;;4.50;;
249;SDS011;109;19.806;-70.704;2022-11-20T17:01:23;22.10;;;3.60;;
249;SDS011;109;19.806;-70.704;2022-11-20T17:04:10;21.33;;;3.10;;
249;SDS011;109;19.806;-70.704;2022-11-20T17:06:38;25.07;;;3.93;;
249;SDS011;109;19.806;-70.704;2022-11-20T17:09:09;23.97;;;3.60;;
249;SDS011;109;19.806;-70.704;2022-11-20T17:11:36;20.30;;;3.80;;
249;SDS011;109;19.806;-70.704;2022-11-20T17:14:03;17.53;;;3.40;;
249;SDS011;109;19.806;-70.704;2022-11-20T17:16:32;17.60;;;3.63;;
249;SDS011;109;19.806;-70.704;2022-11-20T17:18:59;21.40;;;3.30;;
249;SDS011;109;19.806;-70.704;2022-11-20T17:21:26;15.80;;;3.40;;
249;SDS011;109;19.806;-70.704;2022-11-20T17:23:54;24.07;;;4.20;;
249;SDS011;109;19.806;-70.704;2022-11-20T17:26:21;23.53;;;4.10;;
249;SDS011;109;19.806;-70.704;2022-11-20T17:28:53;35.03;;;3.80;;
249;SDS011;109;19.806;-70.704;2022-11-20T17:31:21;20.80;;;4.17;;
249;SDS011;109;19.806;-70.704;2022-11-20T17:33:47;16.47;;;3.73;;
249;SDS011;109;19.806;-70.704;2022-11-20T17:36:15;25.97;;;4.27;;